Time;durP1;ratioP1;P1;durP2;ratioP2;P2;SDS_P1;SDS_P2;PMS_P1;PMS_P2;Temp;Humidity;BMP_temperature;BMP_pressure;BME280_temperature;BME280_humidity;BME280_pressure;Samples;Min_cycle;Max_cycle;Signal;HPM_P1;HPM_P2
2021/04/18 00:02:08;;;;;;;11.98;7.95;;;;;;;7.92;76.12;98835.84;6255375;22;19995;-78
2021/04/18 00:04:34;;;;;;;11.95;6.97;;;;;;;7.95;76.11;98829.22;6254605;22;20008;-79
2021/04/18 00:07:02;;;;;;;11.35;7.18;;;;;;;7.93;76.17;98826.00;6253757;22;20003;-81
2021/04/18 00:09:30;;;;;;;14.30;8.27;;;;;;;7.95;76.20;98821.22;6254313;22;20006;-80
2021/04/18 00:11:55;;;;;;;13.48;6.72;;;;;;;7.92;76.28;98813.75;6215210;22;20004;-78
2021/04/18 00:14:24;;;;;;;12.20;8.05;;;;;;;7.90;76.57;98811.34;6254289;22;20000;-79
2021/04/18 00:16:50;;;;;;;11.57;7.07;;;;;;;7.91;76.47;98810.28;6254805;22;20341;-77
2021/04/18 00:19:15;;;;;;;14.88;7.38;;;;;;;7.88;76.41;98810.81;6255298;22;20002;-77
2021/04/18 00:21:41;;;;;;;8.93;6.43;;;;;;;7.83;76.97;98816.91;6255469;22;20061;-78
2021/04/18 00:24:07;;;;;;;10.30;7.35;;;;;;;7.82;77.04;98807.34;6256123;22;20504;-78
2021/04/18 00:26:32;;;;;;;10.70;7.15;;;;;;;7.86;77.13;98812.94;6255911;22;20004;-77
2021/04/18 00:28:58;;;;;;;12.45;7.28;;;;;;;7.83;76.77;98806.25;6255198;22;19995;-77
2021/04/18 00:31:23;;;;;;;11.70;7.30;;;;;;;7.79;77.31;98810.53;6281335;22;20420;-77
2021/04/18 00:33:49;;;;;;;11.23;7.18;;;;;;;7.77;76.68;98801.22;6255200;22;20027;-76
2021/04/18 00:36:15;;;;;;;11.60;7.65;;;;;;;7.79;77.32;98797.22;6256660;22;20004;-77
2021/04/18 00:38:40;;;;;;;10.27;6.70;;;;;;;7.78;76.97;98792.94;6253597;22;20011;-77
2021/04/18 00:41:06;;;;;;;9.43;7.25;;;;;;;7.77;77.61;98803.88;6253260;22;20049;-76
2021/04/18 00:43:31;;;;;;;13.27;8.18;;;;;;;7.74;77.27;98805.19;6255322;22;20022;-77
2021/04/18 00:45:57;;;;;;;16.02;8.05;;;;;;;7.74;77.70;98807.03;6284549;22;20079;-77
2021/04/18 00:48:22;;;;;;;16.55;9.00;;;;;;;7.75;77.71;98806.81;6256414;22;19996;-78
2021/04/18 00:50:48;;;;;;;12.48;7.40;;;;;;;7.77;77.39;98809.19;6253055;22;20453;-76
2021/04/18 00:53:13;;;;;;;12.50;7.57;;;;;;;7.76;77.86;98808.38;6281170;22;20129;-76
2021/04/18 00:55:41;;;;;;;14.52;7.78;;;;;;;7.74;77.43;98810.53;6281522;22;19999;-78
2021/04/18 00:58:08;;;;;;;12.05;7.45;;;;;;;7.71;77.53;98810.25;6257220;22;19996;-77
2021/04/18 01:00:35;;;;;;;13.07;7.28;;;;;;;7.73;77.22;98816.13;6256358;22;20000;-76
2021/04/18 01:03:10;;;;;;;15.18;8.43;;;;;;;7.71;77.65;98810.25;6255794;22;20042;-76
2021/04/18 01:05:36;;;;;;;12.52;7.80;;;;;;;7.74;77.52;98815.03;6253180;22;20001;-78
2021/04/18 01:08:03;;;;;;;15.13;7.28;;;;;;;7.76;77.26;98818.25;6282103;22;20324;-80
2021/04/18 01:10:29;;;;;;;13.80;7.75;;;;;;;7.79;77.30;98815.84;6285876;22;20003;-79
2021/04/18 01:12:55;;;;;;;14.63;8.85;;;;;;;7.81;77.18;98824.38;6258717;22;20022;-78
2021/04/18 01:16:07;;;;;;;12.63;7.57;;;;;;;7.85;77.30;98822.00;6292842;22;19986;-82
2021/04/18 01:18:32;;;;;;;11.93;7.22;;;;;;;7.88;76.70;98824.13;6221862;23;20592;-80
2021/04/18 01:21:11;;;;;;;10.80;7.43;;;;;;;7.91;77.21;98817.47;6245888;23;19999;-78
2021/04/18 01:23:38;;;;;;;11.25;7.10;;;;;;;7.93;76.95;98815.34;6247802;23;20387;-78
2021/04/18 01:26:04;;;;;;;11.38;7.13;;;;;;;7.97;77.09;98814.56;6222174;23;19992;-78
2021/04/18 01:28:32;;;;;;;9.05;7.28;;;;;;;7.97;76.58;98806.56;6247755;23;20023;-77
2021/04/18 01:30:59;;;;;;;17.08;7.57;;;;;;;8.04;76.50;98810.84;6220052;23;20050;-78
2021/04/18 01:33:25;;;;;;;10.35;6.55;;;;;;;8.06;76.66;98806.84;6220786;23;20000;-78
2021/04/18 01:35:50;;;;;;;11.68;7.63;;;;;;;8.12;76.81;98812.97;6245170;23;20388;-78
2021/04/18 01:38:17;;;;;;;11.18;6.75;;;;;;;8.15;76.42;98804.44;6245822;23;20437;-78
2021/04/18 01:40:43;;;;;;;11.07;6.57;;;;;;;8.23;76.18;98808.47;6247633;23;20364;-76
2021/04/18 01:50:59;;;;;;;13.05;6.90;;;;;;;8.38;75.67;98789.78;6113983;23;20081;-82
2021/04/18 01:54:21;;;;;;;8.93;6.20;;;;;;;8.40;75.29;98792.19;6011571;23;20556;-80
2021/04/18 01:57:20;;;;;;;11.40;7.13;;;;;;;8.42;75.80;98793.53;5982552;23;20539;-78
2021/04/18 01:59:45;;;;;;;11.85;7.55;;;;;;;8.41;75.53;98783.13;6018974;23;19996;-79
2021/04/18 02:02:12;;;;;;;9.10;6.47;;;;;;;8.35;75.34;98785.00;6153861;23;20132;-78
2021/04/18 02:04:38;;;;;;;13.63;7.68;;;;;;;8.34;75.34;98783.41;6155653;23;20091;-77
2021/04/18 02:07:05;;;;;;;10.45;7.18;;;;;;;8.28;75.40;98782.59;6131509;23;20105;-77
2021/04/18 02:09:31;;;;;;;13.95;7.82;;;;;;;8.27;75.48;98788.22;6155585;23;20060;-77
2021/04/18 02:11:58;;;;;;;12.40;8.10;;;;;;;8.25;75.63;98785.00;6155904;23;20068;-77
2021/04/18 02:14:25;;;;;;;11.73;8.15;;;;;;;8.21;75.93;98784.72;6128543;23;20001;-76
2021/04/18 02:16:50;;;;;;;14.57;7.45;;;;;;;8.20;76.75;98785.00;6190073;22;20020;-79
2021/04/18 02:19:41;;;;;;;17.52;8.75;;;;;;;8.18;76.70;98778.06;6250734;22;20100;-78
2021/04/18 02:22:14;;;;;;;9.55;7.40;;;;;;;8.18;76.33;98775.41;6279097;22;20475;-78
2021/04/18 02:24:39;;;;;;;11.02;8.02;;;;;;;8.19;76.32;98770.91;6250977;22;20000;-76
2021/04/18 02:27:05;;;;;;;11.98;8.23;;;;;;;8.24;76.13;98776.22;6248479;22;20006;-76
2021/04/18 02:29:30;;;;;;;11.68;7.80;;;;;;;8.25;76.59;98783.16;6275230;22;20022;-76
2021/04/18 02:31:56;;;;;;;12.15;7.53;;;;;;;8.25;75.93;98788.47;6275335;22;20021;-76
2021/04/18 02:34:21;;;;;;;13.98;8.43;;;;;;;8.27;76.39;98786.34;6248545;22;20000;-76
2021/04/18 02:36:47;;;;;;;12.88;7.65;;;;;;;8.27;76.37;98789.00;6276313;22;20026;-76
2021/04/18 02:39:12;;;;;;;12.82;7.65;;;;;;;8.27;76.01;98780.22;6276834;22;20027;-76
2021/04/18 02:41:38;;;;;;;12.90;8.55;;;;;;;8.30;75.98;98783.16;6276040;22;20025;-76
2021/04/18 02:44:04;;;;;;;9.70;7.72;;;;;;;8.32;75.56;98790.88;6250825;22;20011;-76
2021/04/18 02:46:29;;;;;;;10.63;6.90;;;;;;;8.37;75.84;98796.19;6249794;22;20007;-77
2021/04/18 02:48:54;;;;;;;11.00;7.88;;;;;;;8.40;75.60;98808.16;6247926;22;20031;-76
2021/04/18 02:51:20;;;;;;;12.77;7.13;;;;;;;8.45;75.13;98811.66;6276157;22;20019;-77
2021/04/18 02:53:45;;;;;;;10.23;6.57;;;;;;;8.49;75.37;98809.28;6251335;22;20003;-77
2021/04/18 02:56:11;;;;;;;13.65;8.55;;;;;;;8.53;75.32;98806.88;6277716;22;20004;-77
2021/04/18 02:58:36;;;;;;;17.33;9.00;;;;;;;8.55;75.24;98804.75;6249815;22;20003;-77
2021/04/18 03:01:03;;;;;;;12.07;8.43;;;;;;;8.58;75.16;98804.19;6250479;22;20006;-76
2021/04/18 03:03:28;;;;;;;12.43;9.02;;;;;;;8.60;75.28;98797.53;6275256;22;20061;-76
2021/04/18 03:05:54;;;;;;;15.48;8.80;;;;;;;8.60;75.05;98794.06;6277827;22;20012;-77
2021/04/18 03:08:19;;;;;;;15.25;8.77;;;;;;;8.59;74.64;98792.47;6250771;22;20011;-77
2021/04/18 03:10:45;;;;;;;14.23;8.32;;;;;;;8.58;75.20;98794.34;6277953;22;20075;-76
2021/04/18 03:13:10;;;;;;;15.10;8.80;;;;;;;8.57;75.46;98792.75;6252521;22;20008;-76
2021/04/18 03:15:36;;;;;;;11.65;8.50;;;;;;;8.57;75.06;98787.41;6278818;22;20322;-76
2021/04/18 03:18:02;;;;;;;12.90;9.23;;;;;;;8.56;74.90;98793.03;6252699;22;20484;-76
2021/04/18 03:20:28;;;;;;;16.42;8.63;;;;;;;8.57;74.83;98798.06;6278907;22;20023;-76
2021/04/18 03:22:54;;;;;;;11.90;8.77;;;;;;;8.57;74.97;98799.94;6253034;22;20059;-75
2021/04/18 03:25:20;;;;;;;15.07;9.13;;;;;;;8.60;75.19;98810.06;6279078;22;20483;-76
2021/04/18 03:27:45;;;;;;;12.93;7.93;;;;;;;8.61;74.85;98809.00;6251917;22;20010;-76
2021/04/18 03:30:12;;;;;;;16.23;10.32;;;;;;;8.57;74.58;98802.59;6277900;22;20054;-75
2021/04/18 03:32:37;;;;;;;15.20;9.57;;;;;;;8.58;74.66;98801.53;6276551;22;20004;-75
2021/04/18 03:35:07;;;;;;;14.02;9.27;;;;;;;8.57;74.55;98799.94;6276440;22;20004;-76
2021/04/18 03:37:33;;;;;;;10.63;7.43;;;;;;;8.52;74.17;98799.94;6277556;22;20000;-76
2021/04/18 03:39:58;;;;;;;11.32;7.50;;;;;;;8.53;74.67;98806.88;6250033;22;20176;-78
2021/04/18 03:42:25;;;;;;;12.93;7.38;;;;;;;8.51;74.67;98801.81;6276996;22;20433;-78
2021/04/18 03:44:51;;;;;;;12.50;7.70;;;;;;;8.50;74.49;98794.88;6250100;22;19999;-77
2021/04/18 03:47:16;;;;;;;13.63;7.22;;;;;;;8.48;74.41;98795.16;6277470;22;19999;-78
2021/04/18 03:49:41;;;;;;;11.43;7.22;;;;;;;8.47;74.59;98806.88;6250035;22;20006;-77
2021/04/18 03:52:07;;;;;;;12.77;7.85;;;;;;;8.44;74.88;98806.59;6275298;22;20056;-76
2021/04/18 03:54:33;;;;;;;9.75;7.28;;;;;;;8.44;74.23;98812.72;6278004;22;20003;-76
2021/04/18 03:56:58;;;;;;;12.10;7.78;;;;;;;8.42;74.05;98804.19;6274606;22;20010;-77
2021/04/18 03:59:24;;;;;;;9.63;7.30;;;;;;;8.39;74.22;98801.28;6276593;22;20004;-77
2021/04/18 04:01:50;;;;;;;9.32;7.32;;;;;;;8.39;74.29;98810.03;6276560;22;20010;-77
2021/04/18 04:04:15;;;;;;;12.10;7.05;;;;;;;8.42;73.89;98800.72;6250368;22;20417;-78
2021/04/18 04:06:40;;;;;;;12.25;7.38;;;;;;;8.44;73.80;98802.03;6250408;22;20008;-78
2021/04/18 04:09:06;;;;;;;8.63;7.32;;;;;;;8.42;73.65;98796.19;6250626;22;20002;-77
2021/04/18 04:11:32;;;;;;;13.93;7.68;;;;;;;8.43;73.72;98799.66;6250523;22;20003;-77
2021/04/18 04:13:57;;;;;;;11.73;8.48;;;;;;;8.42;74.06;98806.88;6278052;22;20010;-77
2021/04/18 04:16:23;;;;;;;15.48;9.25;;;;;;;8.42;73.82;98809.53;6276774;22;20026;-77
2021/04/18 04:18:49;;;;;;;11.00;9.10;;;;;;;8.45;73.48;98806.31;6275854;22;20000;-77
2021/04/18 04:21:14;;;;;;;14.13;10.35;;;;;;;8.44;73.30;98812.72;6249032;22;20004;-77
2021/04/18 04:23:40;;;;;;;13.23;9.32;;;;;;;8.45;73.35;98814.31;6251575;22;20018;-76
2021/04/18 04:26:06;;;;;;;12.43;7.57;;;;;;;8.39;72.96;98806.59;6276058;22;20000;-77
2021/04/18 04:28:31;;;;;;;15.48;8.38;;;;;;;8.41;73.18;98809.78;6278315;22;19995;-78
2021/04/18 04:30:57;;;;;;;13.15;8.43;;;;;;;8.43;73.15;98812.97;6276834;22;20030;-77
2021/04/18 04:33:22;;;;;;;10.98;7.30;;;;;;;8.44;73.59;98810.03;6249293;22;20007;-77
2021/04/18 04:35:48;;;;;;;12.23;6.90;;;;;;;8.44;73.51;98804.72;6248297;22;20419;-77
2021/04/18 04:38:13;;;;;;;8.88;7.45;;;;;;;8.43;73.62;98787.13;6250238;22;20325;-77
2021/04/18 04:40:38;;;;;;;8.95;5.88;;;;;;;8.40;73.53;98779.69;6250852;22;20007;-77
2021/04/18 04:43:04;;;;;;;6.97;6.05;;;;;;;8.31;73.37;98771.44;6250790;22;20425;-77
2021/04/18 04:45:29;;;;;;;10.02;7.05;;;;;;;8.23;73.78;98771.16;6275684;22;20000;-79
2021/04/18 04:47:55;;;;;;;10.18;7.03;;;;;;;8.19;73.75;98773.56;6249463;22;20082;-78
2021/04/18 04:50:21;;;;;;;11.57;7.05;;;;;;;8.17;74.23;98781.00;6277978;22;20035;-77
2021/04/18 04:52:47;;;;;;;9.93;6.65;;;;;;;8.14;74.36;98782.34;6276184;22;20155;-77
2021/04/18 04:55:13;;;;;;;10.48;7.20;;;;;;;8.16;74.81;98785.53;6277335;22;19995;-78
2021/04/18 04:57:39;;;;;;;10.95;7.63;;;;;;;8.18;74.45;98778.06;6278836;22;20038;-78
2021/04/18 05:00:06;;;;;;;9.52;7.00;;;;;;;8.19;74.30;98781.56;6252731;22;19999;-79
2021/04/18 05:02:32;;;;;;;10.85;6.90;;;;;;;8.19;74.37;98770.91;6274992;22;20003;-77
2021/04/18 05:04:57;;;;;;;8.45;5.80;;;;;;;8.21;73.95;98776.75;6251617;22;20409;-78
2021/04/18 05:07:22;;;;;;;9.05;6.07;;;;;;;8.20;74.54;98761.03;6276269;22;20010;-76
2021/04/18 05:09:48;;;;;;;9.23;6.45;;;;;;;8.13;74.17;98764.75;6248835;22;20000;-78
2021/04/18 05:12:13;;;;;;;11.32;6.75;;;;;;;8.06;74.86;98750.91;6247996;22;20328;-78
2021/04/18 05:14:39;;;;;;;8.82;6.38;;;;;;;8.04;75.11;98753.03;6251889;22;20003;-77
2021/04/18 05:17:04;;;;;;;12.05;7.10;;;;;;;8.05;75.10;98759.19;6246586;22;20456;-78
2021/04/18 05:19:30;;;;;;;11.43;7.75;;;;;;;8.08;75.37;98756.78;6273324;22;20011;-78
2021/04/18 05:21:55;;;;;;;10.48;7.90;;;;;;;8.10;75.69;98749.31;6247210;22;20007;-78
2021/04/18 05:24:21;;;;;;;10.27;7.45;;;;;;;8.12;75.13;98752.50;6247767;22;20498;-78
2021/04/18 05:26:46;;;;;;;13.73;7.75;;;;;;;8.14;75.22;98755.72;6247257;22;20007;-77
2021/04/18 05:29:12;;;;;;;11.32;7.43;;;;;;;8.21;75.77;98757.31;6246403;22;20336;-78
2021/04/18 05:31:38;;;;;;;12.45;7.30;;;;;;;8.24;75.55;98743.44;6247710;22;20003;-76
2021/04/18 05:34:03;;;;;;;13.57;8.00;;;;;;;8.31;75.43;98751.97;6274898;22;20436;-79
2021/04/18 05:36:29;;;;;;;10.60;6.88;;;;;;;8.45;75.49;98753.00;6249031;22;20014;-78
2021/04/18 05:39:15;;;;;;;9.98;6.63;;;;;;;8.69;74.98;98749.81;6252823;22;20004;-81
2021/04/18 05:41:41;;;;;;;8.40;6.55;;;;;;;8.94;74.19;98748.13;6274468;22;20031;-81
2021/04/18 05:44:08;;;;;;;10.65;6.63;;;;;;;9.24;73.58;98743.72;6247734;22;19999;-79
2021/04/18 05:46:34;;;;;;;9.05;6.38;;;;;;;9.54;72.69;98745.44;6224027;22;20003;-79
2021/04/18 05:48:59;;;;;;;10.52;6.07;;;;;;;9.83;71.86;98741.28;6245891;22;20432;-76
2021/04/18 05:51:25;;;;;;;14.38;6.63;;;;;;;10.08;70.67;98737.59;6245886;22;19996;-81
2021/04/18 05:53:50;;;;;;;9.23;6.68;;;;;;;10.32;69.28;98736.84;6271747;22;20474;-80
2021/04/18 05:56:16;;;;;;;8.07;5.93;;;;;;;10.51;68.53;98728.94;6272238;22;20603;-77
2021/04/18 05:58:41;;;;;;;12.32;7.03;;;;;;;10.52;67.77;98720.66;6245959;22;20023;-77
2021/04/18 06:01:06;;;;;;;12.50;7.35;;;;;;;10.62;67.46;98722.41;6246707;22;20003;-77
2021/04/18 06:03:32;;;;;;;11.50;7.45;;;;;;;10.70;66.69;98727.13;6273737;22;20074;-77
2021/04/18 06:05:57;;;;;;;12.68;8.40;;;;;;;10.76;66.75;98727.88;6245426;22;20436;-76
2021/04/18 06:08:23;;;;;;;14.40;8.38;;;;;;;10.79;66.42;98721.16;6246241;22;20053;-76
2021/04/18 06:10:48;;;;;;;12.65;7.80;;;;;;;10.84;66.13;98716.56;6271526;22;20130;-76
2021/04/18 06:13:14;;;;;;;15.43;9.40;;;;;;;10.91;66.15;98721.53;6272510;22;20000;-75
2021/04/18 06:15:40;;;;;;;14.25;8.38;;;;;;;11.01;65.29;98734.00;6273466;22;20068;-78
2021/04/18 06:18:06;;;;;;;12.57;9.50;;;;;;;11.05;65.27;98727.00;6271640;22;20122;-77
2021/04/18 06:20:31;;;;;;;14.82;9.80;;;;;;;11.05;64.89;98711.75;6246118;22;20336;-78
2021/04/18 06:22:56;;;;;;;10.27;8.77;;;;;;;11.15;65.38;98712.72;6246200;22;19999;-77
2021/04/18 06:25:22;;;;;;;14.60;10.18;;;;;;;11.28;65.34;98719.22;6246907;22;20328;-76
2021/04/18 06:27:47;;;;;;;16.83;10.98;;;;;;;11.44;64.70;98717.16;6273966;22;20310;-76
2021/04/18 06:30:13;;;;;;;14.50;9.35;;;;;;;11.62;64.26;98719.03;6246752;22;19999;-76
2021/04/18 06:32:39;;;;;;;14.88;9.55;;;;;;;11.81;64.36;98720.88;6273628;22;20219;-76
2021/04/18 06:35:06;;;;;;;15.68;9.10;;;;;;;12.08;64.18;98740.84;6273592;22;20030;-77
2021/04/18 06:37:33;;;;;;;12.15;8.18;;;;;;;12.28;62.98;98745.06;6246910;22;20003;-77
2021/04/18 06:39:58;;;;;;;11.13;6.75;;;;;;;12.37;61.74;98747.88;6275707;22;20000;-77
2021/04/18 06:42:24;;;;;;;11.98;7.78;;;;;;;12.48;61.30;98750.06;6275766;22;20441;-76
2021/04/18 06:44:54;;;;;;;11.30;8.05;;;;;;;12.44;61.58;98745.63;6248729;22;20003;-77
2021/04/18 06:47:20;;;;;;;11.85;8.80;;;;;;;12.43;60.80;98760.13;6249033;22;20050;-77
2021/04/18 06:49:47;;;;;;;13.30;8.93;;;;;;;12.44;61.10;98764.38;6248526;22;20007;-76
2021/04/18 06:52:13;;;;;;;10.70;9.60;;;;;;;12.45;61.90;98752.53;6248952;22;20004;-76
2021/04/18 06:54:38;;;;;;;10.98;8.43;;;;;;;12.53;60.24;98743.03;6248926;22;20014;-79
2021/04/18 06:57:04;;;;;;;13.48;10.02;;;;;;;12.49;60.00;98757.03;6246658;22;20408;-77
2021/04/18 06:59:29;;;;;;;13.23;10.07;;;;;;;12.44;60.88;98751.75;6247192;22;20011;-78
2021/04/18 07:01:55;;;;;;;10.35;9.02;;;;;;;12.48;60.88;98749.28;6246657;22;20090;-81
2021/04/18 07:04:22;;;;;;;13.95;10.70;;;;;;;12.53;61.21;98753.78;6247689;22;20027;-77
2021/04/18 07:06:52;;;;;;;14.63;10.45;;;;;;;12.59;61.20;98758.72;6247819;22;19995;-77
2021/04/18 07:09:22;;;;;;;10.82;7.50;;;;;;;12.59;59.75;98766.78;6274443;22;20089;-76
2021/04/18 07:11:52;;;;;;;12.50;7.75;;;;;;;12.53;59.32;98759.91;6247566;22;20038;-77
2021/04/18 07:14:37;;;;;;;8.55;6.97;;;;;;;12.51;59.06;98777.41;6240669;22;20027;-74
2021/04/18 07:17:10;;;;;;;10.60;8.05;;;;;;;12.42;60.20;98774.59;6273148;22;20012;-75
2021/04/18 07:19:39;;;;;;;9.68;6.65;;;;;;;12.33;58.94;98779.84;6274555;22;20042;-75
2021/04/18 07:22:05;;;;;;;11.85;7.47;;;;;;;12.15;59.83;98768.06;6247563;22;20000;-77
2021/04/18 07:24:31;;;;;;;10.48;6.90;;;;;;;12.14;61.15;98769.16;6273983;22;20332;-80
2021/04/18 07:27:02;;;;;;;8.27;7.30;;;;;;;12.06;60.75;98772.50;6272486;22;20057;-77
2021/04/18 07:29:29;;;;;;;11.93;7.88;;;;;;;12.01;61.21;98779.53;6246196;22;19999;-77
2021/04/18 07:31:58;;;;;;;10.60;7.88;;;;;;;12.03;60.42;98778.47;6274260;22;20006;-75
2021/04/18 07:34:26;;;;;;;27.67;16.33;;;;;;;12.07;61.75;98776.78;6269816;22;20007;-78
2021/04/18 07:37:09;;;;;;;42.40;23.25;;;;;;;12.09;61.34;98779.97;6246848;22;20405;-78
2021/04/18 07:39:52;;;;;;;48.35;28.02;;;;;;;11.99;61.22;98783.59;6274285;22;20000;-77
2021/04/18 07:42:36;;;;;;;45.85;27.00;;;;;;;11.95;61.29;98782.56;6273328;22;20004;-77
2021/04/18 07:45:09;;;;;;;47.95;27.88;;;;;;;11.96;61.70;98789.50;6246962;22;20000;-79
2021/04/18 07:47:37;;;;;;;51.13;26.17;;;;;;;11.97;61.35;98775.88;6246606;22;20000;-80
2021/04/18 07:50:06;;;;;;;41.88;23.17;;;;;;;11.98;61.54;98764.03;6245810;22;20078;-84
2021/04/18 07:52:33;;;;;;;43.78;25.38;;;;;;;11.97;61.47;98767.81;6246488;22;20010;-82
2021/04/18 07:54:59;;;;;;;43.58;23.50;;;;;;;12.01;62.29;98768.81;6247440;22;20362;-81
2021/04/18 07:57:25;;;;;;;38.65;23.60;;;;;;;12.08;61.64;98768.44;6246252;22;20004;-76
2021/04/18 07:59:51;;;;;;;42.92;25.25;;;;;;;12.08;59.86;98764.97;6273033;22;20486;-75
2021/04/18 08:02:20;;;;;;;45.30;24.85;;;;;;;12.01;60.32;98759.97;6246855;22;20004;-79
2021/04/18 08:04:50;;;;;;;41.83;25.98;;;;;;;12.08;62.22;98759.63;6271983;22;20433;-78
2021/04/18 08:07:15;;;;;;;49.05;26.17;;;;;;;12.22;61.69;98748.91;6271980;22;20409;-76
2021/04/18 08:09:41;;;;;;;40.72;23.05;;;;;;;12.28;61.33;98750.41;6247497;22;20011;-77
2021/04/18 08:12:08;;;;;;;45.15;25.10;;;;;;;12.31;60.96;98750.63;6274786;22;19995;-76
2021/04/18 08:14:35;;;;;;;35.17;21.73;;;;;;;12.35;60.20;98758.09;6273026;22;20306;-75
2021/04/18 08:17:12;;;;;;;41.60;21.90;;;;;;;12.44;59.79;98756.34;6274799;22;20035;-74
2021/04/18 08:19:53;;;;;;;35.55;19.88;;;;;;;12.51;59.78;98743.31;6274997;22;20071;-76
2021/04/18 08:22:18;;;;;;;27.05;17.63;;;;;;;12.57;58.61;98752.06;6274774;22;20023;-74
2021/04/18 08:24:43;;;;;;;36.22;18.50;;;;;;;12.60;59.20;98749.59;6274669;22;19995;-76
2021/04/18 08:27:11;;;;;;;31.10;18.13;;;;;;;12.70;59.72;98737.88;6274929;22;20336;-75
2021/04/18 08:30:04;;;;;;;32.10;18.33;;;;;;;12.84;60.18;98740.59;6274773;22;20006;-75
2021/04/18 08:32:44;;;;;;;31.85;18.92;;;;;;;12.94;59.14;98742.28;6274737;22;20468;-75
2021/04/18 08:35:12;;;;;;;29.33;17.13;;;;;;;13.00;58.26;98734.91;6274838;22;20070;-75
2021/04/18 08:37:37;;;;;;;27.17;16.80;;;;;;;13.07;57.89;98724.56;6273191;22;20341;-75
2021/04/18 08:40:05;;;;;;;28.90;17.38;;;;;;;13.04;59.22;98719.78;6274130;22;19999;-75
2021/04/18 08:42:30;;;;;;;26.40;16.52;;;;;;;13.04;58.21;98712.53;6274645;22;19995;-73
2021/04/18 08:44:57;;;;;;;27.88;16.50;;;;;;;13.06;58.49;98722.97;6274772;22;20003;-75
2021/04/18 08:47:31;;;;;;;41.72;21.67;;;;;;;13.01;57.82;98734.63;6274536;22;20379;-75
2021/04/18 08:50:06;;;;;;;36.42;21.63;;;;;;;12.97;57.81;98755.88;6274730;22;20079;-74
2021/04/18 08:52:34;;;;;;;36.92;21.73;;;;;;;12.76;57.36;98752.78;6274555;22;20046;-74
2021/04/18 08:55:14;;;;;;;36.20;20.60;;;;;;;12.63;58.09;98751.69;6274811;22;20000;-76
2021/04/18 08:57:40;;;;;;;25.15;16.85;;;;;;;12.52;59.42;98755.63;6274716;22;20008;-75
2021/04/18 09:00:12;;;;;;;24.38;15.60;;;;;;;12.47;59.66;98753.88;6274753;22;20310;-74
2021/04/18 09:02:37;;;;;;;23.95;16.27;;;;;;;12.44;59.51;98757.13;6273848;22;20031;-74
2021/04/18 09:05:09;;;;;;;25.10;14.02;;;;;;;12.35;60.04;98760.78;6274498;22;20409;-74
2021/04/18 09:07:36;;;;;;;22.20;15.07;;;;;;;12.38;59.84;98760.19;6274008;22;20008;-75
2021/04/18 09:10:11;;;;;;;23.15;14.60;;;;;;;12.29;59.79;98747.47;6274421;22;20432;-75
2021/04/18 09:12:36;;;;;;;25.95;15.32;;;;;;;12.30;61.20;98754.44;6274243;22;20022;-75
2021/04/18 09:15:06;;;;;;;22.15;14.93;;;;;;;12.33;61.42;98763.75;6273831;22;20425;-73
2021/04/18 09:17:33;;;;;;;22.75;15.90;;;;;;;12.35;60.27;98769.59;6274226;22;20014;-74
2021/04/18 09:20:04;;;;;;;20.02;15.25;;;;;;;12.33;60.73;98766.44;6274582;22;20004;-74
2021/04/18 09:22:31;;;;;;;31.33;18.23;;;;;;;12.32;59.99;98781.72;6274149;22;20009;-74
2021/04/18 09:25:11;;;;;;;35.92;23.42;;;;;;;12.20;59.78;98781.38;6274020;22;20393;-74
2021/04/18 09:27:45;;;;;;;34.22;21.35;;;;;;;12.16;60.12;98777.72;6272738;22;20000;-74
2021/04/18 09:30:17;;;;;;;33.10;20.45;;;;;;;12.17;60.67;98772.06;6274339;22;19996;-74
2021/04/18 09:32:45;;;;;;;31.48;18.88;;;;;;;12.15;60.58;98762.72;6274151;22;20075;-76
2021/04/18 09:35:13;;;;;;;32.78;20.63;;;;;;;12.16;61.57;98758.94;6274381;22;20003;-74
2021/04/18 09:37:40;;;;;;;37.60;24.65;;;;;;;12.17;61.07;98765.91;6274077;22;19999;-74
2021/04/18 09:40:08;;;;;;;41.13;23.55;;;;;;;12.18;61.22;98764.78;6274184;22;20401;-74
2021/04/18 09:42:36;;;;;;;35.38;22.10;;;;;;;12.22;61.15;98760.47;6273994;22;19996;-74
2021/04/18 09:45:26;;;;;;;33.88;19.92;;;;;;;12.26;61.21;98761.44;6273930;22;20007;-74
2021/04/18 09:47:57;;;;;;;26.38;17.92;;;;;;;12.31;61.11;98757.88;6259026;22;20035;-74
2021/04/18 09:50:31;;;;;;;25.05;16.50;;;;;;;12.33;61.25;98751.16;6246636;22;20153;-75
2021/04/18 09:53:11;;;;;;;26.20;17.02;;;;;;;12.41;60.02;98760.38;6274298;22;20000;-74
2021/04/18 09:55:52;;;;;;;24.75;17.08;;;;;;;12.44;60.11;98759.81;6274005;22;20034;-76
2021/04/18 09:58:31;;;;;;;16.75;13.23;;;;;;;12.47;60.07;98755.75;6273841;22;20456;-74
2021/04/18 10:00:58;;;;;;;18.30;13.70;;;;;;;12.48;60.59;98758.13;6274023;22;19995;-74
2021/04/18 10:03:36;;;;;;;20.35;12.57;;;;;;;12.52;60.31;98755.63;6273913;22;20003;-74
2021/04/18 10:06:01;;;;;;;;;;;;;;;12.55;59.86;98754.25;6274760;22;19999;-75
2021/04/18 10:08:32;;;;;;;13.55;9.95;;;;;;;12.57;60.66;98752.88;6273402;22;19982;-74
2021/04/18 10:11:07;;;;;;;16.58;9.75;;;;;;;12.63;60.84;98751.69;6274007;22;20027;-75
2021/04/18 10:13:41;;;;;;;14.70;10.50;;;;;;;12.65;60.27;98757.53;6273915;22;20077;-74
2021/04/18 10:16:07;;;;;;;14.73;10.30;;;;;;;12.64;59.89;98750.59;6273346;22;20012;-74
2021/04/18 10:18:34;;;;;;;15.38;11.38;;;;;;;12.67;60.04;98746.53;6273422;22;19999;-74
2021/04/18 10:21:19;;;;;;;17.05;10.32;;;;;;;12.76;60.32;98738.59;6273654;22;20395;-74
2021/04/18 10:23:47;;;;;;;14.48;10.13;;;;;;;12.77;59.91;98738.28;6273299;22;20023;-74
2021/04/18 10:26:16;;;;;;;19.67;9.98;;;;;;;12.82;59.35;98742.75;6273777;22;20301;-74
2021/04/18 10:28:42;;;;;;;10.02;8.00;;;;;;;12.82;59.04;98745.44;6273427;22;19995;-75
2021/04/18 10:31:07;;;;;;;10.95;8.65;;;;;;;12.80;60.13;98750.31;6273391;22;20025;-73
2021/04/18 10:33:33;;;;;;;12.40;9.93;;;;;;;12.84;60.41;98740.59;6246404;22;20015;-73
2021/04/18 10:35:59;;;;;;;11.95;10.23;;;;;;;12.86;60.22;98741.06;6273861;22;20344;-74
2021/04/18 10:38:25;;;;;;;16.27;10.68;;;;;;;12.87;60.29;98742.66;6273542;22;20003;-74
2021/04/18 10:40:50;;;;;;;14.85;10.88;;;;;;;12.89;60.87;98737.78;6273553;22;19999;-74
2021/04/18 10:43:17;;;;;;;14.80;11.82;;;;;;;12.95;60.64;98733.91;6274330;22;20030;-74
2021/04/18 10:45:43;;;;;;;14.70;11.23;;;;;;;12.98;60.75;98737.88;6273544;22;19999;-74
2021/04/18 10:48:09;;;;;;;12.98;10.55;;;;;;;12.96;59.77;98746.25;6273883;22;20491;-74
2021/04/18 10:50:35;;;;;;;19.55;11.07;;;;;;;12.96;60.65;98740.88;6273308;22;20532;-73
2021/04/18 10:53:01;;;;;;;17.75;12.80;;;;;;;12.92;60.41;98721.06;6273419;22;20000;-74
2021/04/18 10:55:27;;;;;;;18.10;12.18;;;;;;;13.00;60.84;98729.53;6273203;22;20035;-74
2021/04/18 10:57:52;;;;;;;17.27;12.82;;;;;;;13.01;59.65;98739.16;6273864;22;20023;-74
2021/04/18 11:00:18;;;;;;;14.80;11.70;;;;;;;13.04;58.98;98734.00;6273138;22;20480;-73
2021/04/18 11:02:44;;;;;;;17.10;11.57;;;;;;;13.09;60.68;98746.53;6273099;22;20074;-75
2021/04/18 11:05:10;;;;;;;18.48;13.20;;;;;;;13.09;60.01;98747.31;6273073;22;20007;-75
2021/04/18 11:07:36;;;;;;;17.92;12.95;;;;;;;13.18;59.81;98742.03;6273191;22;20432;-75
2021/04/18 11:10:03;;;;;;;14.75;11.55;;;;;;;13.15;58.89;98748.00;6273697;22;20412;-77
2021/04/18 11:12:30;;;;;;;16.77;12.82;;;;;;;13.15;59.09;98753.38;6246317;22;20463;-75
2021/04/18 11:14:56;;;;;;;19.15;14.93;;;;;;;13.09;58.53;98741.94;6273850;22;20375;-75
2021/04/18 11:17:21;;;;;;;21.58;12.57;;;;;;;13.08;59.20;98744.94;6273458;22;20018;-74
2021/04/18 11:19:47;;;;;;;24.75;15.35;;;;;;;13.03;59.63;98737.78;6273354;22;20003;-74
2021/04/18 11:22:12;;;;;;;21.23;14.32;;;;;;;13.09;59.52;98751.91;6273246;22;20000;-74
2021/04/18 11:24:38;;;;;;;21.33;13.73;;;;;;;13.12;59.12;98767.41;6272926;22;20000;-74
2021/04/18 11:27:03;;;;;;;22.77;14.90;;;;;;;13.09;59.44;98765.31;6275185;22;20016;-74
2021/04/18 11:29:29;;;;;;;22.55;16.35;;;;;;;13.11;59.75;98771.19;6275210;22;20003;-74
2021/04/18 11:31:55;;;;;;;23.38;15.15;;;;;;;13.09;59.49;98754.59;6275179;22;19995;-74
2021/04/18 11:34:21;;;;;;;26.05;16.05;;;;;;;13.14;59.24;98757.16;6275558;22;20575;-74
2021/04/18 11:36:46;;;;;;;24.75;14.57;;;;;;;13.12;60.41;98762.84;6275546;22;20083;-74
2021/04/18 11:39:12;;;;;;;17.13;13.35;;;;;;;13.13;59.90;98774.34;6274883;22;20056;-74